Mc Gregor, Iowa
Current Conditions -  °F | °C
As of 3:15 AM on Friday 31 Oct 2014 (Local Time) from KPDC Reporting Station
Scattered Clouds Scattered Clouds  
Wind Chill: 24°   Ceiling: Unl
Heat Index: 36°   Visibility: 10mi
Dew Point: 15°   Wind: 23mph
Humidity: 42%   Direction: 320°NW
Pressure: 30.25"   Gusts: 31mph
Location:  43.0056°N, 91.2139°W
Report Text: KPDC 310815Z AUTO 32020G27KT 10SM SCT050 02/M10 A3025 RMK AO2 T00201097
Loading
Personal Weather Stations






























Interactive Weather Map
Tropical Storm Tracking
New forecast layout! Learn more

10-Day Weather Forecast

Advertisements
Track Severe Weather on mobile